Terminal Aerodrome Forecast
Issued by NWS Portland, ME

Current Version | Previous Version | Text Only | Print | Product List | Glossary On
Versions: 1 2 3 4 5 6 7 8 9 10 11 12 13 14 15
000
FTUS41 KGYX 011120
TAFPWM
TAF
KPWM 011120Z 0112/0212 00000KT P6SM SCT200
     FM011200 VRB03KT P6SM SCT100 BKN200
     FM011600 20006KT P6SM SCT060 OVC100
     FM020100 20007KT 3SM -SN BR BKN025 OVC050=

USA.gov is the U.S. government's official web portal to all federal, state and local government web resources and services.